sensor_id;sensor_type;location;lat;lon;timestamp;P1;durP1;ratioP1;P2;durP2;ratioP2
4873;SDS011;2451;49.970;9.068;2023-03-23T00:01:05;1.85;;;1.25;;
4873;SDS011;2451;49.970;9.068;2023-03-23T00:03:34;3.95;;;1.45;;
4873;SDS011;2451;49.970;9.068;2023-03-23T00:06:00;2.53;;;1.40;;
4873;SDS011;2451;49.970;9.068;2023-03-23T00:08:33;2.05;;;1.50;;
4873;SDS011;2451;49.970;9.068;2023-03-23T00:11:02;2.85;;;1.50;;
4873;SDS011;2451;49.970;9.068;2023-03-23T00:13:32;3.08;;;1.50;;
4873;SDS011;2451;49.970;9.068;2023-03-23T00:15:58;4.32;;;1.63;;
4873;SDS011;2451;49.970;9.068;2023-03-23T00:18:24;2.95;;;1.55;;
4873;SDS011;2451;49.970;9.068;2023-03-23T00:20:51;2.38;;;1.48;;
4873;SDS011;2451;49.970;9.068;2023-03-23T00:23:19;2.85;;;1.40;;
4873;SDS011;2451;49.970;9.068;2023-03-23T00:25:48;3.00;;;1.60;;
4873;SDS011;2451;49.970;9.068;2023-03-23T00:28:18;1.75;;;1.20;;
4873;SDS011;2451;49.970;9.068;2023-03-23T00:33:30;2.92;;;1.63;;
4873;SDS011;2451;49.970;9.068;2023-03-23T00:36:03;2.72;;;1.50;;
4873;SDS011;2451;49.970;9.068;2023-03-23T00:38:30;2.17;;;1.35;;
4873;SDS011;2451;49.970;9.068;2023-03-23T00:40:56;4.70;;;1.50;;
4873;SDS011;2451;49.970;9.068;2023-03-23T00:43:22;2.55;;;1.40;;
4873;SDS011;2451;49.970;9.068;2023-03-23T00:45:49;3.05;;;1.40;;
4873;SDS011;2451;49.970;9.068;2023-03-23T00:48:19;2.00;;;1.42;;
4873;SDS011;2451;49.970;9.068;2023-03-23T00:50:45;1.80;;;1.38;;
4873;SDS011;2451;49.970;9.068;2023-03-23T00:53:11;1.98;;;1.30;;
4873;SDS011;2451;49.970;9.068;2023-03-23T00:55:37;2.88;;;1.40;;
4873;SDS011;2451;49.970;9.068;2023-03-23T00:58:02;2.88;;;1.65;;
4873;SDS011;2451;49.970;9.068;2023-03-23T01:00:28;2.70;;;1.45;;
4873;SDS011;2451;49.970;9.068;2023-03-23T01:02:54;2.03;;;1.30;;
4873;SDS011;2451;49.970;9.068;2023-03-23T01:05:19;1.85;;;1.30;;
4873;SDS011;2451;49.970;9.068;2023-03-23T01:07:46;2.13;;;1.40;;
4873;SDS011;2451;49.970;9.068;2023-03-23T01:10:12;2.50;;;1.20;;
4873;SDS011;2451;49.970;9.068;2023-03-23T01:12:41;3.25;;;1.40;;
4873;SDS011;2451;49.970;9.068;2023-03-23T01:15:08;2.65;;;1.30;;
4873;SDS011;2451;49.970;9.068;2023-03-23T01:17:34;2.47;;;1.48;;
4873;SDS011;2451;49.970;9.068;2023-03-23T01:20:00;1.52;;;1.30;;
4873;SDS011;2451;49.970;9.068;2023-03-23T01:22:25;1.73;;;1.30;;
4873;SDS011;2451;49.970;9.068;2023-03-23T01:24:51;2.20;;;1.30;;
4873;SDS011;2451;49.970;9.068;2023-03-23T01:27:16;1.92;;;1.42;;
4873;SDS011;2451;49.970;9.068;2023-03-23T01:29:42;1.83;;;1.27;;
4873;SDS011;2451;49.970;9.068;2023-03-23T01:32:08;2.33;;;1.30;;
4873;SDS011;2451;49.970;9.068;2023-03-23T01:34:33;3.40;;;1.42;;
4873;SDS011;2451;49.970;9.068;2023-03-23T01:36:59;2.40;;;1.20;;
4873;SDS011;2451;49.970;9.068;2023-03-23T01:39:25;2.58;;;1.40;;
4873;SDS011;2451;49.970;9.068;2023-03-23T01:41:50;1.83;;;1.30;;
4873;SDS011;2451;49.970;9.068;2023-03-23T01:46:42;1.80;;;1.27;;
4873;SDS011;2451;49.970;9.068;2023-03-23T01:49:19;3.03;;;1.40;;
4873;SDS011;2451;49.970;9.068;2023-03-23T01:51:52;1.73;;;1.20;;
4873;SDS011;2451;49.970;9.068;2023-03-23T01:54:21;3.75;;;1.30;;
4873;SDS011;2451;49.970;9.068;2023-03-23T01:56:49;4.22;;;1.30;;
4873;SDS011;2451;49.970;9.068;2023-03-23T01:59:19;1.65;;;1.00;;
4873;SDS011;2451;49.970;9.068;2023-03-23T02:01:46;2.20;;;1.35;;
4873;SDS011;2451;49.970;9.068;2023-03-23T02:04:13;2.92;;;1.67;;
4873;SDS011;2451;49.970;9.068;2023-03-23T02:06:41;4.05;;;1.23;;
4873;SDS011;2451;49.970;9.068;2023-03-23T02:09:09;2.60;;;1.30;;
4873;SDS011;2451;49.970;9.068;2023-03-23T02:11:36;2.08;;;1.45;;
4873;SDS011;2451;49.970;9.068;2023-03-23T02:14:02;3.47;;;1.33;;
4873;SDS011;2451;49.970;9.068;2023-03-23T02:16:33;3.55;;;1.58;;
4873;SDS011;2451;49.970;9.068;2023-03-23T02:19:23;1.65;;;1.33;;
4873;SDS011;2451;49.970;9.068;2023-03-23T02:30:38;2.35;;;1.50;;
4873;SDS011;2451;49.970;9.068;2023-03-23T02:33:15;2.55;;;1.50;;
4873;SDS011;2451;49.970;9.068;2023-03-23T02:35:50;1.80;;;1.40;;
4873;SDS011;2451;49.970;9.068;2023-03-23T02:38:31;3.15;;;1.33;;
4873;SDS011;2451;49.970;9.068;2023-03-23T02:41:03;3.05;;;1.42;;
4873;SDS011;2451;49.970;9.068;2023-03-23T02:43:30;1.55;;;1.20;;
4873;SDS011;2451;49.970;9.068;2023-03-23T02:45:58;1.70;;;1.35;;
4873;SDS011;2451;49.970;9.068;2023-03-23T02:48:27;2.40;;;1.30;;
4873;SDS011;2451;49.970;9.068;2023-03-23T02:53:21;2.53;;;1.48;;
4873;SDS011;2451;49.970;9.068;2023-03-23T02:55:49;3.28;;;1.40;;
4873;SDS011;2451;49.970;9.068;2023-03-23T02:58:17;2.00;;;1.30;;
4873;SDS011;2451;49.970;9.068;2023-03-23T03:00:44;2.95;;;1.40;;
4873;SDS011;2451;49.970;9.068;2023-03-23T03:03:13;2.55;;;1.40;;
4873;SDS011;2451;49.970;9.068;2023-03-23T03:05:52;2.30;;;1.40;;
4873;SDS011;2451;49.970;9.068;2023-03-23T03:08:37;2.80;;;1.38;;
4873;SDS011;2451;49.970;9.068;2023-03-23T03:11:15;2.80;;;1.45;;
4873;SDS011;2451;49.970;9.068;2023-03-23T03:14:44;1.90;;;1.40;;
4873;SDS011;2451;49.970;9.068;2023-03-23T03:17:01;3.00;;;1.52;;
4873;SDS011;2451;49.970;9.068;2023-03-23T03:19:44;2.80;;;1.45;;
4873;SDS011;2451;49.970;9.068;2023-03-23T03:22:12;4.53;;;1.50;;
4873;SDS011;2451;49.970;9.068;2023-03-23T03:24:38;3.35;;;1.40;;
4873;SDS011;2451;49.970;9.068;2023-03-23T03:27:10;2.35;;;1.45;;
4873;SDS011;2451;49.970;9.068;2023-03-23T03:29:40;3.60;;;1.67;;
4873;SDS011;2451;49.970;9.068;2023-03-23T03:32:08;2.25;;;1.40;;
4873;SDS011;2451;49.970;9.068;2023-03-23T03:34:39;2.67;;;1.45;;
4873;SDS011;2451;49.970;9.068;2023-03-23T03:37:04;6.05;;;1.60;;
4873;SDS011;2451;49.970;9.068;2023-03-23T03:39:31;4.32;;;1.80;;
4873;SDS011;2451;49.970;9.068;2023-03-23T03:42:00;3.88;;;1.60;;
4873;SDS011;2451;49.970;9.068;2023-03-23T03:44:26;2.47;;;1.70;;
4873;SDS011;2451;49.970;9.068;2023-03-23T03:46:52;2.80;;;1.30;;
4873;SDS011;2451;49.970;9.068;2023-03-23T03:49:17;3.67;;;1.58;;
4873;SDS011;2451;49.970;9.068;2023-03-23T03:51:43;3.00;;;1.60;;
4873;SDS011;2451;49.970;9.068;2023-03-23T03:54:09;2.20;;;1.30;;
4873;SDS011;2451;49.970;9.068;2023-03-23T03:56:35;5.20;;;2.15;;
4873;SDS011;2451;49.970;9.068;2023-03-23T03:59:05;3.05;;;1.70;;
4873;SDS011;2451;49.970;9.068;2023-03-23T04:01:31;3.05;;;1.70;;
4873;SDS011;2451;49.970;9.068;2023-03-23T04:03:57;2.80;;;1.50;;
4873;SDS011;2451;49.970;9.068;2023-03-23T04:06:22;2.90;;;1.70;;
4873;SDS011;2451;49.970;9.068;2023-03-23T04:08:48;2.38;;;1.70;;
4873;SDS011;2451;49.970;9.068;2023-03-23T04:11:14;4.35;;;2.58;;
4873;SDS011;2451;49.970;9.068;2023-03-23T04:13:40;3.90;;;2.13;;
4873;SDS011;2451;49.970;9.068;2023-03-23T04:16:06;3.78;;;2.20;;
4873;SDS011;2451;49.970;9.068;2023-03-23T04:18:32;7.05;;;4.00;;
4873;SDS011;2451;49.970;9.068;2023-03-23T04:20:59;8.48;;;3.30;;
4873;SDS011;2451;49.970;9.068;2023-03-23T04:23:27;6.55;;;3.30;;
4873;SDS011;2451;49.970;9.068;2023-03-23T04:25:55;3.50;;;2.22;;
4873;SDS011;2451;49.970;9.068;2023-03-23T04:28:22;3.63;;;1.98;;
4873;SDS011;2451;49.970;9.068;2023-03-23T04:30:50;4.97;;;1.65;;
4873;SDS011;2451;49.970;9.068;2023-03-23T04:33:23;2.53;;;1.63;;
4873;SDS011;2451;49.970;9.068;2023-03-23T04:35:55;3.85;;;1.70;;
4873;SDS011;2451;49.970;9.068;2023-03-23T04:38:25;3.55;;;1.88;;
4873;SDS011;2451;49.970;9.068;2023-03-23T04:40:52;4.43;;;1.80;;
4873;SDS011;2451;49.970;9.068;2023-03-23T04:43:19;2.72;;;1.80;;
4873;SDS011;2451;49.970;9.068;2023-03-23T04:45:53;4.10;;;2.00;;
4873;SDS011;2451;49.970;9.068;2023-03-23T04:48:22;3.55;;;1.92;;
4873;SDS011;2451;49.970;9.068;2023-03-23T04:50:52;4.65;;;1.80;;
4873;SDS011;2451;49.970;9.068;2023-03-23T04:53:19;4.68;;;2.20;;
4873;SDS011;2451;49.970;9.068;2023-03-23T04:55:44;3.75;;;2.00;;
4873;SDS011;2451;49.970;9.068;2023-03-23T04:58:12;2.67;;;2.05;;
4873;SDS011;2451;49.970;9.068;2023-03-23T05:00:39;3.00;;;1.80;;
4873;SDS011;2451;49.970;9.068;2023-03-23T05:03:08;3.70;;;1.80;;
4873;SDS011;2451;49.970;9.068;2023-03-23T05:05:36;3.75;;;1.90;;
4873;SDS011;2451;49.970;9.068;2023-03-23T05:08:02;2.28;;;1.67;;
4873;SDS011;2451;49.970;9.068;2023-03-23T05:10:30;3.65;;;1.80;;
4873;SDS011;2451;49.970;9.068;2023-03-23T05:12:55;4.32;;;2.10;;
4873;SDS011;2451;49.970;9.068;2023-03-23T05:15:21;3.17;;;2.00;;
4873;SDS011;2451;49.970;9.068;2023-03-23T05:17:47;2.58;;;1.85;;
4873;SDS011;2451;49.970;9.068;2023-03-23T05:20:14;4.68;;;1.90;;
4873;SDS011;2451;49.970;9.068;2023-03-23T05:22:43;3.40;;;2.00;;
4873;SDS011;2451;49.970;9.068;2023-03-23T05:25:09;2.67;;;1.80;;
4873;SDS011;2451;49.970;9.068;2023-03-23T05:27:36;3.67;;;1.63;;
4873;SDS011;2451;49.970;9.068;2023-03-23T05:30:02;3.70;;;1.83;;
4873;SDS011;2451;49.970;9.068;2023-03-23T05:32:29;2.45;;;1.73;;
4873;SDS011;2451;49.970;9.068;2023-03-23T05:34:56;3.42;;;1.73;;
4873;SDS011;2451;49.970;9.068;2023-03-23T05:37:22;2.20;;;1.70;;
4873;SDS011;2451;49.970;9.068;2023-03-23T05:39:48;2.92;;;1.60;;
4873;SDS011;2451;49.970;9.068;2023-03-23T05:42:13;5.15;;;1.65;;
4873;SDS011;2451;49.970;9.068;2023-03-23T05:44:39;3.30;;;1.48;;
4873;SDS011;2451;49.970;9.068;2023-03-23T05:47:05;3.33;;;1.70;;
4873;SDS011;2451;49.970;9.068;2023-03-23T05:49:33;3.70;;;1.67;;
4873;SDS011;2451;49.970;9.068;2023-03-23T05:52:03;4.40;;;2.00;;
4873;SDS011;2451;49.970;9.068;2023-03-23T05:54:28;2.55;;;1.75;;
4873;SDS011;2451;49.970;9.068;2023-03-23T05:56:54;2.83;;;1.40;;
4873;SDS011;2451;49.970;9.068;2023-03-23T05:59:19;3.63;;;1.75;;
4873;SDS011;2451;49.970;9.068;2023-03-23T06:01:45;3.55;;;1.80;;
4873;SDS011;2451;49.970;9.068;2023-03-23T06:04:11;2.83;;;1.67;;
4873;SDS011;2451;49.970;9.068;2023-03-23T06:06:38;2.47;;;1.60;;
4873;SDS011;2451;49.970;9.068;2023-03-23T06:09:04;3.25;;;1.50;;
4873;SDS011;2451;49.970;9.068;2023-03-23T06:11:29;3.17;;;1.70;;
4873;SDS011;2451;49.970;9.068;2023-03-23T06:13:55;4.38;;;1.85;;
4873;SDS011;2451;49.970;9.068;2023-03-23T06:16:21;3.15;;;1.67;;
4873;SDS011;2451;49.970;9.068;2023-03-23T06:18:47;4.35;;;1.83;;
4873;SDS011;2451;49.970;9.068;2023-03-23T06:21:14;5.10;;;1.67;;
4873;SDS011;2451;49.970;9.068;2023-03-23T06:23:43;2.05;;;1.40;;
4873;SDS011;2451;49.970;9.068;2023-03-23T06:26:09;3.38;;;1.85;;
4873;SDS011;2451;49.970;9.068;2023-03-23T06:28:37;4.40;;;2.08;;
4873;SDS011;2451;49.970;9.068;2023-03-23T06:31:04;5.47;;;1.60;;
4873;SDS011;2451;49.970;9.068;2023-03-23T06:33:31;2.85;;;1.85;;
4873;SDS011;2451;49.970;9.068;2023-03-23T06:36:00;5.83;;;2.77;;
4873;SDS011;2451;49.970;9.068;2023-03-23T06:38:25;3.35;;;1.90;;
4873;SDS011;2451;49.970;9.068;2023-03-23T06:40:54;6.03;;;2.75;;
4873;SDS011;2451;49.970;9.068;2023-03-23T06:43:20;2.80;;;1.90;;
4873;SDS011;2451;49.970;9.068;2023-03-23T06:45:46;3.45;;;2.00;;
4873;SDS011;2451;49.970;9.068;2023-03-23T06:48:11;3.60;;;1.60;;
4873;SDS011;2451;49.970;9.068;2023-03-23T06:50:37;6.60;;;2.10;;
4873;SDS011;2451;49.970;9.068;2023-03-23T06:53:02;3.25;;;2.00;;
4873;SDS011;2451;49.970;9.068;2023-03-23T06:55:28;5.82;;;2.00;;
4873;SDS011;2451;49.970;9.068;2023-03-23T06:57:54;5.38;;;2.10;;
4873;SDS011;2451;49.970;9.068;2023-03-23T07:00:19;4.65;;;2.20;;
4873;SDS011;2451;49.970;9.068;2023-03-23T07:02:45;3.30;;;2.05;;
4873;SDS011;2451;49.970;9.068;2023-03-23T07:05:11;4.57;;;1.90;;
4873;SDS011;2451;49.970;9.068;2023-03-23T07:07:38;2.80;;;1.75;;
4873;SDS011;2451;49.970;9.068;2023-03-23T07:10:05;2.97;;;1.95;;
4873;SDS011;2451;49.970;9.068;2023-03-23T07:12:33;3.90;;;1.73;;
4873;SDS011;2451;49.970;9.068;2023-03-23T07:15:00;5.07;;;1.70;;
4873;SDS011;2451;49.970;9.068;2023-03-23T07:17:30;3.08;;;2.00;;
4873;SDS011;2451;49.970;9.068;2023-03-23T07:19:56;3.65;;;1.70;;
4873;SDS011;2451;49.970;9.068;2023-03-23T07:22:21;3.03;;;1.95;;
4873;SDS011;2451;49.970;9.068;2023-03-23T07:24:47;4.35;;;1.88;;
4873;SDS011;2451;49.970;9.068;2023-03-23T07:27:13;3.25;;;1.77;;
4873;SDS011;2451;49.970;9.068;2023-03-23T07:29:38;2.90;;;2.00;;
4873;SDS011;2451;49.970;9.068;2023-03-23T07:32:05;4.88;;;1.88;;
4873;SDS011;2451;49.970;9.068;2023-03-23T07:34:31;2.88;;;2.03;;
4873;SDS011;2451;49.970;9.068;2023-03-23T07:36:57;6.03;;;1.90;;
4873;SDS011;2451;49.970;9.068;2023-03-23T07:39:24;3.10;;;1.95;;
4873;SDS011;2451;49.970;9.068;2023-03-23T07:41:50;4.18;;;2.00;;
4873;SDS011;2451;49.970;9.068;2023-03-23T07:44:16;2.65;;;1.90;;
4873;SDS011;2451;49.970;9.068;2023-03-23T07:46:42;3.67;;;2.08;;
4873;SDS011;2451;49.970;9.068;2023-03-23T07:49:08;3.20;;;1.90;;
4873;SDS011;2451;49.970;9.068;2023-03-23T07:51:34;3.63;;;2.20;;
4873;SDS011;2451;49.970;9.068;2023-03-23T07:54:00;2.85;;;1.98;;
4873;SDS011;2451;49.970;9.068;2023-03-23T07:56:27;4.55;;;1.80;;
4873;SDS011;2451;49.970;9.068;2023-03-23T07:58:53;4.72;;;2.30;;
4873;SDS011;2451;49.970;9.068;2023-03-23T08:01:19;3.45;;;1.80;;
4873;SDS011;2451;49.970;9.068;2023-03-23T08:03:44;3.13;;;1.90;;
4873;SDS011;2451;49.970;9.068;2023-03-23T08:06:10;4.57;;;1.75;;
4873;SDS011;2451;49.970;9.068;2023-03-23T08:08:35;5.00;;;2.00;;
4873;SDS011;2451;49.970;9.068;2023-03-23T08:11:02;2.67;;;1.60;;
4873;SDS011;2451;49.970;9.068;2023-03-23T08:13:28;2.85;;;1.73;;
4873;SDS011;2451;49.970;9.068;2023-03-23T08:15:54;2.85;;;1.80;;
4873;SDS011;2451;49.970;9.068;2023-03-23T08:18:20;3.65;;;2.05;;
4873;SDS011;2451;49.970;9.068;2023-03-23T08:20:45;2.22;;;1.50;;
4873;SDS011;2451;49.970;9.068;2023-03-23T08:23:11;3.75;;;1.60;;
4873;SDS011;2451;49.970;9.068;2023-03-23T08:25:37;2.65;;;1.70;;
4873;SDS011;2451;49.970;9.068;2023-03-23T08:28:03;3.55;;;1.80;;
4873;SDS011;2451;49.970;9.068;2023-03-23T08:30:29;2.42;;;1.65;;
4873;SDS011;2451;49.970;9.068;2023-03-23T08:32:58;2.85;;;1.70;;
4873;SDS011;2451;49.970;9.068;2023-03-23T08:35:25;2.35;;;1.30;;
4873;SDS011;2451;49.970;9.068;2023-03-23T08:37:51;2.90;;;1.42;;
4873;SDS011;2451;49.970;9.068;2023-03-23T08:40:18;3.45;;;1.70;;
4873;SDS011;2451;49.970;9.068;2023-03-23T08:42:46;1.42;;;1.27;;
4873;SDS011;2451;49.970;9.068;2023-03-23T08:45:13;2.25;;;1.50;;
4873;SDS011;2451;49.970;9.068;2023-03-23T08:47:42;1.73;;;1.30;;
4873;SDS011;2451;49.970;9.068;2023-03-23T08:50:09;3.40;;;1.35;;
4873;SDS011;2451;49.970;9.068;2023-03-23T08:52:37;2.38;;;1.27;;
4873;SDS011;2451;49.970;9.068;2023-03-23T08:55:03;2.17;;;1.20;;
4873;SDS011;2451;49.970;9.068;2023-03-23T08:57:30;2.55;;;1.52;;
4873;SDS011;2451;49.970;9.068;2023-03-23T08:59:56;2.85;;;1.40;;
4873;SDS011;2451;49.970;9.068;2023-03-23T09:02:25;3.88;;;1.42;;
4873;SDS011;2451;49.970;9.068;2023-03-23T09:04:51;3.45;;;1.50;;
4873;SDS011;2451;49.970;9.068;2023-03-23T09:07:18;3.03;;;1.30;;
4873;SDS011;2451;49.970;9.068;2023-03-23T09:09:44;1.73;;;1.30;;
4873;SDS011;2451;49.970;9.068;2023-03-23T09:12:10;1.40;;;1.20;;
4873;SDS011;2451;49.970;9.068;2023-03-23T09:14:36;2.42;;;1.40;;
4873;SDS011;2451;49.970;9.068;2023-03-23T09:17:03;2.10;;;1.40;;
4873;SDS011;2451;49.970;9.068;2023-03-23T09:19:30;2.38;;;1.40;;
4873;SDS011;2451;49.970;9.068;2023-03-23T09:21:58;2.05;;;1.20;;
4873;SDS011;2451;49.970;9.068;2023-03-23T09:24:23;3.13;;;1.30;;
4873;SDS011;2451;49.970;9.068;2023-03-23T09:26:50;3.45;;;1.48;;
4873;SDS011;2451;49.970;9.068;2023-03-23T09:29:15;1.88;;;1.40;;
4873;SDS011;2451;49.970;9.068;2023-03-23T09:31:41;2.65;;;1.40;;
4873;SDS011;2451;49.970;9.068;2023-03-23T09:34:08;3.80;;;1.77;;
4873;SDS011;2451;49.970;9.068;2023-03-23T09:36:35;2.72;;;1.30;;
4873;SDS011;2451;49.970;9.068;2023-03-23T09:39:01;3.00;;;1.30;;
4873;SDS011;2451;49.970;9.068;2023-03-23T09:44:51;3.20;;;1.48;;
4873;SDS011;2451;49.970;9.068;2023-03-23T09:50:30;1.63;;;1.35;;
4873;SDS011;2451;49.970;9.068;2023-03-23T09:55:26;2.65;;;1.40;;
4873;SDS011;2451;49.970;9.068;2023-03-23T09:57:59;3.42;;;1.50;;
4873;SDS011;2451;49.970;9.068;2023-03-23T10:00:41;2.17;;;1.50;;
4873;SDS011;2451;49.970;9.068;2023-03-23T10:03:42;3.00;;;1.60;;
4873;SDS011;2451;49.970;9.068;2023-03-23T10:06:09;2.25;;;1.50;;
4873;SDS011;2451;49.970;9.068;2023-03-23T10:08:47;2.95;;;1.63;;
4873;SDS011;2451;49.970;9.068;2023-03-23T10:11:32;1.67;;;1.30;;
4873;SDS011;2451;49.970;9.068;2023-03-23T10:16:34;3.60;;;1.80;;
4873;SDS011;2451;49.970;9.068;2023-03-23T10:19:10;1.95;;;1.30;;
4873;SDS011;2451;49.970;9.068;2023-03-23T10:21:49;2.65;;;1.50;;
4873;SDS011;2451;49.970;9.068;2023-03-23T10:24:19;1.30;;;1.20;;
4873;SDS011;2451;49.970;9.068;2023-03-23T10:30:21;3.40;;;1.63;;
4873;SDS011;2451;49.970;9.068;2023-03-23T10:32:45;2.90;;;1.42;;
4873;SDS011;2451;49.970;9.068;2023-03-23T10:35:16;3.40;;;1.70;;
4873;SDS011;2451;49.970;9.068;2023-03-23T10:37:48;2.72;;;1.55;;
4873;SDS011;2451;49.970;9.068;2023-03-23T10:40:21;2.55;;;1.55;;
4873;SDS011;2451;49.970;9.068;2023-03-23T10:42:50;1.38;;;1.27;;
4873;SDS011;2451;49.970;9.068;2023-03-23T10:45:26;2.50;;;1.60;;
4873;SDS011;2451;49.970;9.068;2023-03-23T10:50:41;3.80;;;1.60;;
4873;SDS011;2451;49.970;9.068;2023-03-23T10:53:16;1.83;;;1.10;;
4873;SDS011;2451;49.970;9.068;2023-03-23T10:55:46;3.45;;;1.70;;
4873;SDS011;2451;49.970;9.068;2023-03-23T10:58:21;2.75;;;1.30;;
4873;SDS011;2451;49.970;9.068;2023-03-23T11:00:55;2.85;;;1.38;;
4873;SDS011;2451;49.970;9.068;2023-03-23T11:06:09;1.90;;;1.20;;
4873;SDS011;2451;49.970;9.068;2023-03-23T11:08:51;2.90;;;1.30;;
4873;SDS011;2451;49.970;9.068;2023-03-23T11:11:25;2.47;;;1.42;;
4873;SDS011;2451;49.970;9.068;2023-03-23T11:13:56;1.63;;;1.05;;
4873;SDS011;2451;49.970;9.068;2023-03-23T11:18:59;2.10;;;1.00;;
4873;SDS011;2451;49.970;9.068;2023-03-23T11:21:36;2.28;;;1.10;;
4873;SDS011;2451;49.970;9.068;2023-03-23T11:24:03;1.50;;;1.00;;
4873;SDS011;2451;49.970;9.068;2023-03-23T11:26:30;2.05;;;1.10;;
4873;SDS011;2451;49.970;9.068;2023-03-23T11:29:04;1.40;;;1.00;;
4873;SDS011;2451;49.970;9.068;2023-03-23T11:31:40;1.67;;;1.10;;
4873;SDS011;2451;49.970;9.068;2023-03-23T11:34:18;2.20;;;1.15;;
4873;SDS011;2451;49.970;9.068;2023-03-23T11:36:59;2.30;;;1.00;;
4873;SDS011;2451;49.970;9.068;2023-03-23T11:39:53;2.00;;;0.98;;
4873;SDS011;2451;49.970;9.068;2023-03-23T11:42:24;1.73;;;1.10;;
4873;SDS011;2451;49.970;9.068;2023-03-23T11:45:17;1.38;;;1.00;;
4873;SDS011;2451;49.970;9.068;2023-03-23T11:48:27;2.53;;;1.10;;
4873;SDS011;2451;49.970;9.068;2023-03-23T11:50:48;2.28;;;1.15;;
4873;SDS011;2451;49.970;9.068;2023-03-23T11:56:30;1.58;;;1.20;;
4873;SDS011;2451;49.970;9.068;2023-03-23T11:59:00;1.70;;;1.10;;
4873;SDS011;2451;49.970;9.068;2023-03-23T12:01:46;3.25;;;1.30;;
4873;SDS011;2451;49.970;9.068;2023-03-23T12:15:24;1.70;;;1.45;;
4873;SDS011;2451;49.970;9.068;2023-03-23T12:18:09;2.05;;;1.30;;
4873;SDS011;2451;49.970;9.068;2023-03-23T12:23:39;1.92;;;1.10;;
4873;SDS011;2451;49.970;9.068;2023-03-23T12:26:18;1.75;;;1.00;;
4873;SDS011;2451;49.970;9.068;2023-03-23T12:37:04;1.88;;;1.30;;
4873;SDS011;2451;49.970;9.068;2023-03-23T12:48:36;1.60;;;1.20;;
4873;SDS011;2451;49.970;9.068;2023-03-23T12:54:09;1.35;;;1.10;;
4873;SDS011;2451;49.970;9.068;2023-03-23T12:56:51;1.60;;;1.20;;
4873;SDS011;2451;49.970;9.068;2023-03-23T13:02:14;2.55;;;1.40;;
4873;SDS011;2451;49.970;9.068;2023-03-23T13:04:48;1.75;;;1.15;;
4873;SDS011;2451;49.970;9.068;2023-03-23T13:07:22;1.27;;;0.90;;
4873;SDS011;2451;49.970;9.068;2023-03-23T13:09:55;1.05;;;0.88;;
4873;SDS011;2451;49.970;9.068;2023-03-23T13:12:28;1.40;;;1.00;;
4873;SDS011;2451;49.970;9.068;2023-03-23T13:15:04;2.38;;;1.20;;
4873;SDS011;2451;49.970;9.068;2023-03-23T13:17:47;1.50;;;1.10;;
4873;SDS011;2451;49.970;9.068;2023-03-23T13:20:25;1.88;;;1.25;;
4873;SDS011;2451;49.970;9.068;2023-03-23T13:23:02;1.30;;;1.20;;
4873;SDS011;2451;49.970;9.068;2023-03-23T13:28:23;1.20;;;1.10;;
4873;SDS011;2451;49.970;9.068;2023-03-23T13:30:57;2.75;;;1.17;;
4873;SDS011;2451;49.970;9.068;2023-03-23T13:33:31;3.33;;;1.10;;
4873;SDS011;2451;49.970;9.068;2023-03-23T13:36:03;2.15;;;1.00;;
4873;SDS011;2451;49.970;9.068;2023-03-23T13:38:35;1.35;;;1.02;;
4873;SDS011;2451;49.970;9.068;2023-03-23T13:41:11;2.33;;;1.10;;
4873;SDS011;2451;49.970;9.068;2023-03-23T13:43:39;1.33;;;1.00;;
4873;SDS011;2451;49.970;9.068;2023-03-23T13:48:48;1.88;;;1.00;;
4873;SDS011;2451;49.970;9.068;2023-03-23T13:56:41;2.35;;;0.98;;
4873;SDS011;2451;49.970;9.068;2023-03-23T14:01:53;2.10;;;1.20;;
4873;SDS011;2451;49.970;9.068;2023-03-23T14:04:20;0.90;;;0.90;;
4873;SDS011;2451;49.970;9.068;2023-03-23T14:06:48;3.10;;;1.50;;
4873;SDS011;2451;49.970;9.068;2023-03-23T14:09:16;1.40;;;1.15;;
4873;SDS011;2451;49.970;9.068;2023-03-23T14:11:58;2.58;;;1.10;;
4873;SDS011;2451;49.970;9.068;2023-03-23T14:14:33;1.63;;;1.20;;
4873;SDS011;2451;49.970;9.068;2023-03-23T14:17:26;1.58;;;1.27;;
4873;SDS011;2451;49.970;9.068;2023-03-23T14:19:52;2.72;;;1.20;;
4873;SDS011;2451;49.970;9.068;2023-03-23T14:22:23;2.13;;;1.02;;
4873;SDS011;2451;49.970;9.068;2023-03-23T14:25:16;1.23;;;1.00;;
4873;SDS011;2451;49.970;9.068;2023-03-23T14:27:43;2.88;;;1.50;;
4873;SDS011;2451;49.970;9.068;2023-03-23T14:32:44;1.95;;;1.02;;
4873;SDS011;2451;49.970;9.068;2023-03-23T14:35:17;3.28;;;1.95;;
4873;SDS011;2451;49.970;9.068;2023-03-23T14:37:55;1.67;;;1.08;;
4873;SDS011;2451;49.970;9.068;2023-03-23T14:40:21;3.28;;;1.60;;
4873;SDS011;2451;49.970;9.068;2023-03-23T14:42:47;1.25;;;1.08;;
4873;SDS011;2451;49.970;9.068;2023-03-23T14:45:17;1.27;;;0.82;;
4873;SDS011;2451;49.970;9.068;2023-03-23T14:47:45;3.90;;;1.30;;
4873;SDS011;2451;49.970;9.068;2023-03-23T14:50:29;2.83;;;1.30;;
4873;SDS011;2451;49.970;9.068;2023-03-23T14:53:03;1.13;;;0.90;;
4873;SDS011;2451;49.970;9.068;2023-03-23T14:55:41;1.45;;;1.05;;
4873;SDS011;2451;49.970;9.068;2023-03-23T14:58:08;5.38;;;2.38;;
4873;SDS011;2451;49.970;9.068;2023-03-23T15:00:41;1.38;;;1.20;;
4873;SDS011;2451;49.970;9.068;2023-03-23T15:03:20;1.45;;;1.10;;
4873;SDS011;2451;49.970;9.068;2023-03-23T15:05:48;1.50;;;1.20;;
4873;SDS011;2451;49.970;9.068;2023-03-23T15:08:24;2.35;;;1.08;;
4873;SDS011;2451;49.970;9.068;2023-03-23T15:11:40;2.03;;;1.10;;
4873;SDS011;2451;49.970;9.068;2023-03-23T15:13:44;1.55;;;0.88;;
4873;SDS011;2451;49.970;9.068;2023-03-23T15:16:13;2.47;;;1.10;;
4873;SDS011;2451;49.970;9.068;2023-03-23T15:18:45;1.83;;;1.35;;
4873;SDS011;2451;49.970;9.068;2023-03-23T15:21:28;3.15;;;1.25;;
4873;SDS011;2451;49.970;9.068;2023-03-23T15:23:59;2.67;;;1.35;;
4873;SDS011;2451;49.970;9.068;2023-03-23T15:26:30;1.67;;;0.90;;
4873;SDS011;2451;49.970;9.068;2023-03-23T15:29:14;2.13;;;1.05;;
4873;SDS011;2451;49.970;9.068;2023-03-23T15:31:43;2.00;;;1.40;;
4873;SDS011;2451;49.970;9.068;2023-03-23T15:34:18;3.10;;;1.10;;
4873;SDS011;2451;49.970;9.068;2023-03-23T15:36:57;0.88;;;0.88;;
4873;SDS011;2451;49.970;9.068;2023-03-23T15:39:25;3.13;;;1.42;;
4873;SDS011;2451;49.970;9.068;2023-03-23T15:41:51;2.50;;;1.55;;
4873;SDS011;2451;49.970;9.068;2023-03-23T15:44:26;1.83;;;1.05;;
4873;SDS011;2451;49.970;9.068;2023-03-23T15:47:13;1.73;;;1.00;;
4873;SDS011;2451;49.970;9.068;2023-03-23T15:49:41;1.17;;;1.08;;
4873;SDS011;2451;49.970;9.068;2023-03-23T15:52:09;3.15;;;1.10;;
4873;SDS011;2451;49.970;9.068;2023-03-23T15:54:36;3.20;;;1.70;;
4873;SDS011;2451;49.970;9.068;2023-03-23T15:57:02;2.58;;;1.40;;
4873;SDS011;2451;49.970;9.068;2023-03-23T15:59:28;1.83;;;1.50;;
4873;SDS011;2451;49.970;9.068;2023-03-23T16:01:53;3.90;;;2.50;;
4873;SDS011;2451;49.970;9.068;2023-03-23T16:04:19;3.78;;;1.88;;
4873;SDS011;2451;49.970;9.068;2023-03-23T16:06:45;2.75;;;1.70;;
4873;SDS011;2451;49.970;9.068;2023-03-23T16:09:16;2.08;;;1.60;;
4873;SDS011;2451;49.970;9.068;2023-03-23T16:11:43;2.55;;;1.42;;
4873;SDS011;2451;49.970;9.068;2023-03-23T16:14:09;3.13;;;1.88;;
4873;SDS011;2451;49.970;9.068;2023-03-23T16:16:39;3.20;;;1.75;;
4873;SDS011;2451;49.970;9.068;2023-03-23T16:19:11;2.83;;;1.95;;
4873;SDS011;2451;49.970;9.068;2023-03-23T16:21:38;7.15;;;2.45;;
4873;SDS011;2451;49.970;9.068;2023-03-23T16:24:03;5.93;;;3.10;;
4873;SDS011;2451;49.970;9.068;2023-03-23T16:26:29;4.53;;;2.10;;
4873;SDS011;2451;49.970;9.068;2023-03-23T16:28:55;4.03;;;2.20;;
4873;SDS011;2451;49.970;9.068;2023-03-23T16:31:21;2.05;;;1.30;;
4873;SDS011;2451;49.970;9.068;2023-03-23T16:33:46;2.17;;;1.38;;
4873;SDS011;2451;49.970;9.068;2023-03-23T16:36:12;1.58;;;1.20;;
4873;SDS011;2451;49.970;9.068;2023-03-23T16:38:38;2.90;;;1.20;;
4873;SDS011;2451;49.970;9.068;2023-03-23T16:41:04;1.27;;;1.10;;
4873;SDS011;2451;49.970;9.068;2023-03-23T16:43:31;1.30;;;0.90;;
4873;SDS011;2451;49.970;9.068;2023-03-23T16:45:56;0.98;;;0.93;;
4873;SDS011;2451;49.970;9.068;2023-03-23T16:48:22;1.75;;;1.13;;
4873;SDS011;2451;49.970;9.068;2023-03-23T16:50:48;2.20;;;1.10;;
4873;SDS011;2451;49.970;9.068;2023-03-23T16:53:15;3.05;;;1.10;;
4873;SDS011;2451;49.970;9.068;2023-03-23T16:55:41;1.45;;;1.08;;
4873;SDS011;2451;49.970;9.068;2023-03-23T16:58:11;1.48;;;1.10;;
4873;SDS011;2451;49.970;9.068;2023-03-23T17:00:37;1.00;;;0.90;;
4873;SDS011;2451;49.970;9.068;2023-03-23T17:03:04;2.22;;;1.30;;
4873;SDS011;2451;49.970;9.068;2023-03-23T17:05:30;4.00;;;1.30;;